sensor_id;sensor_type;location;lat;lon;timestamp;temperature;humidity
14182;DHT22;7171;50.936;6.764;2023-10-08T00:01:38;20.70;99.90
14182;DHT22;7171;50.936;6.764;2023-10-08T00:04:08;20.70;99.90
14182;DHT22;7171;50.936;6.764;2023-10-08T00:06:35;20.70;99.90
14182;DHT22;7171;50.936;6.764;2023-10-08T00:09:03;20.90;99.90
14182;DHT22;7171;50.936;6.764;2023-10-08T00:11:34;20.70;99.90
14182;DHT22;7171;50.936;6.764;2023-10-08T00:14:01;22.50;99.90
14182;DHT22;7171;50.936;6.764;2023-10-08T00:16:32;20.60;99.90
14182;DHT22;7171;50.936;6.764;2023-10-08T00:18:59;20.60;99.90
14182;DHT22;7171;50.936;6.764;2023-10-08T00:21:33;20.50;99.90
14182;DHT22;7171;50.936;6.764;2023-10-08T00:24:02;20.50;99.90
14182;DHT22;7171;50.936;6.764;2023-10-08T00:26:32;20.50;99.90
14182;DHT22;7171;50.936;6.764;2023-10-08T00:29:01;20.40;99.90
14182;DHT22;7171;50.936;6.764;2023-10-08T00:31:33;20.40;99.90
14182;DHT22;7171;50.936;6.764;2023-10-08T00:34:06;20.30;99.90
14182;DHT22;7171;50.936;6.764;2023-10-08T00:36:37;20.30;99.90
14182;DHT22;7171;50.936;6.764;2023-10-08T00:39:04;20.20;99.90
14182;DHT22;7171;50.936;6.764;2023-10-08T00:41:35;20.40;99.90
14182;DHT22;7171;50.936;6.764;2023-10-08T00:44:07;20.20;99.90
14182;DHT22;7171;50.936;6.764;2023-10-08T00:46:35;20.10;99.90
14182;DHT22;7171;50.936;6.764;2023-10-08T00:49:04;20.10;99.90
14182;DHT22;7171;50.936;6.764;2023-10-08T00:51:50;20.10;99.90
14182;DHT22;7171;50.936;6.764;2023-10-08T00:54:26;20.00;99.90
14182;DHT22;7171;50.936;6.764;2023-10-08T00:56:59;20.00;99.90
14182;DHT22;7171;50.936;6.764;2023-10-08T00:59:31;20.00;99.90
14182;DHT22;7171;50.936;6.764;2023-10-08T01:02:04;20.00;99.90
14182;DHT22;7171;50.936;6.764;2023-10-08T01:04:33;20.00;99.90
14182;DHT22;7171;50.936;6.764;2023-10-08T01:07:03;20.10;99.90
14182;DHT22;7171;50.936;6.764;2023-10-08T01:09:39;19.90;99.90
14182;DHT22;7171;50.936;6.764;2023-10-08T01:12:09;19.90;99.90
14182;DHT22;7171;50.936;6.764;2023-10-08T01:14:37;19.90;99.90
14182;DHT22;7171;50.936;6.764;2023-10-08T01:17:09;22.60;99.90
14182;DHT22;7171;50.936;6.764;2023-10-08T01:19:39;19.80;99.90
14182;DHT22;7171;50.936;6.764;2023-10-08T01:22:09;19.90;99.90
14182;DHT22;7171;50.936;6.764;2023-10-08T01:24:43;20.90;99.90
14182;DHT22;7171;50.936;6.764;2023-10-08T01:27:11;19.80;99.90
14182;DHT22;7171;50.936;6.764;2023-10-08T01:29:38;19.80;99.90
14182;DHT22;7171;50.936;6.764;2023-10-08T01:32:09;21.30;99.90
14182;DHT22;7171;50.936;6.764;2023-10-08T01:34:36;19.80;99.90
14182;DHT22;7171;50.936;6.764;2023-10-08T01:37:04;19.70;99.90
14182;DHT22;7171;50.936;6.764;2023-10-08T01:39:36;19.60;99.90
14182;DHT22;7171;50.936;6.764;2023-10-08T01:42:05;19.60;99.90
14182;DHT22;7171;50.936;6.764;2023-10-08T01:44:40;19.60;99.90
14182;DHT22;7171;50.936;6.764;2023-10-08T01:47:07;19.50;99.90
14182;DHT22;7171;50.936;6.764;2023-10-08T01:49:37;20.60;99.90
14182;DHT22;7171;50.936;6.764;2023-10-08T01:52:05;19.50;99.90
14182;DHT22;7171;50.936;6.764;2023-10-08T01:54:39;19.40;99.90
14182;DHT22;7171;50.936;6.764;2023-10-08T01:57:06;20.60;99.90
14182;DHT22;7171;50.936;6.764;2023-10-08T01:59:35;19.40;99.90
14182;DHT22;7171;50.936;6.764;2023-10-08T02:02:03;19.30;99.90
14182;DHT22;7171;50.936;6.764;2023-10-08T02:04:31;19.30;99.90
14182;DHT22;7171;50.936;6.764;2023-10-08T02:06:58;19.30;99.90
14182;DHT22;7171;50.936;6.764;2023-10-08T02:09:26;20.60;99.90
14182;DHT22;7171;50.936;6.764;2023-10-08T02:11:54;19.30;99.90
14182;DHT22;7171;50.936;6.764;2023-10-08T02:14:21;19.30;99.90
14182;DHT22;7171;50.936;6.764;2023-10-08T02:16:48;19.30;99.90
14182;DHT22;7171;50.936;6.764;2023-10-08T02:19:18;19.20;99.90
14182;DHT22;7171;50.936;6.764;2023-10-08T02:21:52;19.20;99.90
14182;DHT22;7171;50.936;6.764;2023-10-08T02:24:19;19.20;99.90
14182;DHT22;7171;50.936;6.764;2023-10-08T02:26:47;19.10;99.90
14182;DHT22;7171;50.936;6.764;2023-10-08T02:29:15;19.10;99.90
14182;DHT22;7171;50.936;6.764;2023-10-08T02:31:41;19.10;99.90
14182;DHT22;7171;50.936;6.764;2023-10-08T02:34:09;19.10;99.90
14182;DHT22;7171;50.936;6.764;2023-10-08T02:36:38;19.10;99.90
14182;DHT22;7171;50.936;6.764;2023-10-08T02:39:06;19.00;99.90
14182;DHT22;7171;50.936;6.764;2023-10-08T02:41:39;19.00;99.90
14182;DHT22;7171;50.936;6.764;2023-10-08T02:44:07;19.00;99.90
14182;DHT22;7171;50.936;6.764;2023-10-08T02:46:39;19.00;99.90
14182;DHT22;7171;50.936;6.764;2023-10-08T02:49:07;19.00;99.90
14182;DHT22;7171;50.936;6.764;2023-10-08T02:51:36;19.00;99.90
14182;DHT22;7171;50.936;6.764;2023-10-08T02:54:03;19.00;99.90
14182;DHT22;7171;50.936;6.764;2023-10-08T02:56:31;19.00;99.90
14182;DHT22;7171;50.936;6.764;2023-10-08T02:58:58;19.00;99.90
14182;DHT22;7171;50.936;6.764;2023-10-08T03:01:28;19.00;99.90
14182;DHT22;7171;50.936;6.764;2023-10-08T03:04:00;19.00;99.90
14182;DHT22;7171;50.936;6.764;2023-10-08T03:06:34;19.00;99.90
14182;DHT22;7171;50.936;6.764;2023-10-08T03:09:01;19.00;99.90
14182;DHT22;7171;50.936;6.764;2023-10-08T03:11:30;18.10;99.90
14182;DHT22;7171;50.936;6.764;2023-10-08T03:13:57;19.20;99.90
14182;DHT22;7171;50.936;6.764;2023-10-08T03:16:25;18.90;99.90
14182;DHT22;7171;50.936;6.764;2023-10-08T03:18:54;18.90;99.90
14182;DHT22;7171;50.936;6.764;2023-10-08T03:21:24;18.90;99.90
14182;DHT22;7171;50.936;6.764;2023-10-08T03:24:14;18.90;99.90
14182;DHT22;7171;50.936;6.764;2023-10-08T03:26:55;19.80;99.90
14182;DHT22;7171;50.936;6.764;2023-10-08T03:29:32;20.70;99.90
14182;DHT22;7171;50.936;6.764;2023-10-08T03:31:59;18.80;99.90
14182;DHT22;7171;50.936;6.764;2023-10-08T03:34:31;18.70;99.90
14182;DHT22;7171;50.936;6.764;2023-10-08T03:37:01;18.70;99.90
14182;DHT22;7171;50.936;6.764;2023-10-08T03:39:32;18.70;99.90
14182;DHT22;7171;50.936;6.764;2023-10-08T03:42:19;18.70;99.90
14182;DHT22;7171;50.936;6.764;2023-10-08T03:44:48;18.70;99.90
14182;DHT22;7171;50.936;6.764;2023-10-08T03:47:17;18.70;99.90
14182;DHT22;7171;50.936;6.764;2023-10-08T03:49:47;18.60;99.90
14182;DHT22;7171;50.936;6.764;2023-10-08T03:52:17;18.60;99.90
14182;DHT22;7171;50.936;6.764;2023-10-08T03:54:48;18.60;99.90
14182;DHT22;7171;50.936;6.764;2023-10-08T03:57:29;18.60;99.90
14182;DHT22;7171;50.936;6.764;2023-10-08T04:00:07;18.50;99.90
14182;DHT22;7171;50.936;6.764;2023-10-08T04:02:37;18.40;99.90
14182;DHT22;7171;50.936;6.764;2023-10-08T04:05:06;18.40;99.90
14182;DHT22;7171;50.936;6.764;2023-10-08T04:07:45;18.40;99.90
14182;DHT22;7171;50.936;6.764;2023-10-08T04:10:27;18.40;99.90
14182;DHT22;7171;50.936;6.764;2023-10-08T04:13:15;18.40;99.90
14182;DHT22;7171;50.936;6.764;2023-10-08T04:15:42;18.40;99.90
14182;DHT22;7171;50.936;6.764;2023-10-08T04:18:09;18.30;99.90
14182;DHT22;7171;50.936;6.764;2023-10-08T04:20:37;18.30;99.90
14182;DHT22;7171;50.936;6.764;2023-10-08T04:23:07;18.30;99.90
14182;DHT22;7171;50.936;6.764;2023-10-08T04:25:39;18.30;99.90
14182;DHT22;7171;50.936;6.764;2023-10-08T04:28:08;18.30;99.90
14182;DHT22;7171;50.936;6.764;2023-10-08T04:30:40;18.30;99.90
14182;DHT22;7171;50.936;6.764;2023-10-08T04:33:09;18.20;99.90
14182;DHT22;7171;50.936;6.764;2023-10-08T04:35:39;18.20;99.90
14182;DHT22;7171;50.936;6.764;2023-10-08T04:38:14;18.20;99.90
14182;DHT22;7171;50.936;6.764;2023-10-08T04:40:43;18.20;99.90
14182;DHT22;7171;50.936;6.764;2023-10-08T04:43:14;18.20;99.90
14182;DHT22;7171;50.936;6.764;2023-10-08T04:45:48;18.20;99.90
14182;DHT22;7171;50.936;6.764;2023-10-08T04:48:15;18.20;99.90
14182;DHT22;7171;50.936;6.764;2023-10-08T04:50:46;18.20;99.90
14182;DHT22;7171;50.936;6.764;2023-10-08T04:53:25;18.10;99.90
14182;DHT22;7171;50.936;6.764;2023-10-08T04:55:58;18.10;99.90
14182;DHT22;7171;50.936;6.764;2023-10-08T04:58:28;18.00;99.90
14182;DHT22;7171;50.936;6.764;2023-10-08T05:00:59;18.00;99.90
14182;DHT22;7171;50.936;6.764;2023-10-08T05:03:43;18.00;99.90
14182;DHT22;7171;50.936;6.764;2023-10-08T05:06:22;18.30;99.90
14182;DHT22;7171;50.936;6.764;2023-10-08T05:09:07;18.00;99.90
14182;DHT22;7171;50.936;6.764;2023-10-08T05:11:37;18.00;99.90
14182;DHT22;7171;50.936;6.764;2023-10-08T05:14:32;18.00;99.90
14182;DHT22;7171;50.936;6.764;2023-10-08T05:17:06;18.00;99.90
14182;DHT22;7171;50.936;6.764;2023-10-08T05:19:35;18.10;99.90
14182;DHT22;7171;50.936;6.764;2023-10-08T05:22:21;18.00;99.90
14182;DHT22;7171;50.936;6.764;2023-10-08T05:25:10;18.00;99.90
14182;DHT22;7171;50.936;6.764;2023-10-08T05:27:52;17.80;99.90
14182;DHT22;7171;50.936;6.764;2023-10-08T05:30:34;17.80;99.90
14182;DHT22;7171;50.936;6.764;2023-10-08T05:33:05;17.80;99.90
14182;DHT22;7171;50.936;6.764;2023-10-08T05:35:48;17.70;99.90
14182;DHT22;7171;50.936;6.764;2023-10-08T05:38:17;17.70;99.90
14182;DHT22;7171;50.936;6.764;2023-10-08T05:40:51;17.70;99.90
14182;DHT22;7171;50.936;6.764;2023-10-08T05:43:31;17.70;99.90
14182;DHT22;7171;50.936;6.764;2023-10-08T05:46:21;17.60;99.90
14182;DHT22;7171;50.936;6.764;2023-10-08T05:49:13;17.60;99.90
14182;DHT22;7171;50.936;6.764;2023-10-08T05:51:52;17.50;99.90
14182;DHT22;7171;50.936;6.764;2023-10-08T05:54:36;18.40;99.90
14182;DHT22;7171;50.936;6.764;2023-10-08T05:57:24;17.40;99.90
14182;DHT22;7171;50.936;6.764;2023-10-08T06:00:05;18.20;99.90
14182;DHT22;7171;50.936;6.764;2023-10-08T06:03:12;17.40;99.90
14182;DHT22;7171;50.936;6.764;2023-10-08T06:05:58;17.50;99.90
14182;DHT22;7171;50.936;6.764;2023-10-08T06:08:43;17.50;99.90
14182;DHT22;7171;50.936;6.764;2023-10-08T06:11:18;17.50;99.90
14182;DHT22;7171;50.936;6.764;2023-10-08T06:14:04;17.60;99.90
14182;DHT22;7171;50.936;6.764;2023-10-08T06:16:39;17.60;99.90
14182;DHT22;7171;50.936;6.764;2023-10-08T06:19:10;17.60;99.90
14182;DHT22;7171;50.936;6.764;2023-10-08T06:21:37;17.70;99.90
14182;DHT22;7171;50.936;6.764;2023-10-08T06:24:05;17.70;99.90
14182;DHT22;7171;50.936;6.764;2023-10-08T06:26:36;17.80;99.90
14182;DHT22;7171;50.936;6.764;2023-10-08T06:29:12;17.80;99.90
14182;DHT22;7171;50.936;6.764;2023-10-08T06:31:52;17.80;99.90
14182;DHT22;7171;50.936;6.764;2023-10-08T06:34:21;17.90;99.90
14182;DHT22;7171;50.936;6.764;2023-10-08T06:36:49;17.90;99.90
14182;DHT22;7171;50.936;6.764;2023-10-08T06:39:20;17.90;99.90
14182;DHT22;7171;50.936;6.764;2023-10-08T06:41:52;17.90;99.90
14182;DHT22;7171;50.936;6.764;2023-10-08T06:44:20;17.90;99.90
14182;DHT22;7171;50.936;6.764;2023-10-08T06:46:47;17.90;99.90
14182;DHT22;7171;50.936;6.764;2023-10-08T06:49:18;17.90;99.90
14182;DHT22;7171;50.936;6.764;2023-10-08T06:51:45;17.80;99.90
14182;DHT22;7171;50.936;6.764;2023-10-08T06:54:13;17.80;99.90
14182;DHT22;7171;50.936;6.764;2023-10-08T06:56:43;17.70;99.90
14182;DHT22;7171;50.936;6.764;2023-10-08T06:59:12;17.70;99.90
14182;DHT22;7171;50.936;6.764;2023-10-08T07:01:40;17.70;99.90
14182;DHT22;7171;50.936;6.764;2023-10-08T07:04:11;17.70;99.90
14182;DHT22;7171;50.936;6.764;2023-10-08T07:06:38;17.70;99.90
14182;DHT22;7171;50.936;6.764;2023-10-08T07:09:06;17.70;99.90
14182;DHT22;7171;50.936;6.764;2023-10-08T07:11:39;17.70;99.90
14182;DHT22;7171;50.936;6.764;2023-10-08T07:14:10;17.60;99.90
14182;DHT22;7171;50.936;6.764;2023-10-08T07:16:40;17.60;99.90
14182;DHT22;7171;50.936;6.764;2023-10-08T07:19:07;17.60;99.90
14182;DHT22;7171;50.936;6.764;2023-10-08T07:21:43;17.60;99.90
14182;DHT22;7171;50.936;6.764;2023-10-08T07:24:11;17.50;99.90
14182;DHT22;7171;50.936;6.764;2023-10-08T07:26:41;17.50;99.90
14182;DHT22;7171;50.936;6.764;2023-10-08T07:29:12;17.50;99.90
14182;DHT22;7171;50.936;6.764;2023-10-08T07:31:44;17.50;99.90
14182;DHT22;7171;50.936;6.764;2023-10-08T07:34:14;17.50;99.90
14182;DHT22;7171;50.936;6.764;2023-10-08T07:36:52;17.50;99.90
14182;DHT22;7171;50.936;6.764;2023-10-08T07:39:21;17.50;99.90
14182;DHT22;7171;50.936;6.764;2023-10-08T07:42:00;17.40;99.90
14182;DHT22;7171;50.936;6.764;2023-10-08T07:44:27;17.50;99.90
14182;DHT22;7171;50.936;6.764;2023-10-08T07:46:57;17.50;99.90
14182;DHT22;7171;50.936;6.764;2023-10-08T07:49:24;17.60;99.90
14182;DHT22;7171;50.936;6.764;2023-10-08T07:51:51;17.60;99.90
14182;DHT22;7171;50.936;6.764;2023-10-08T07:54:18;17.70;99.90
14182;DHT22;7171;50.936;6.764;2023-10-08T07:56:46;18.50;99.90
14182;DHT22;7171;50.936;6.764;2023-10-08T07:59:14;17.80;99.90
14182;DHT22;7171;50.936;6.764;2023-10-08T08:01:42;18.40;99.90
14182;DHT22;7171;50.936;6.764;2023-10-08T08:04:11;18.00;99.90
14182;DHT22;7171;50.936;6.764;2023-10-08T08:06:47;18.00;99.90
14182;DHT22;7171;50.936;6.764;2023-10-08T08:09:15;18.10;99.90
14182;DHT22;7171;50.936;6.764;2023-10-08T08:11:45;18.20;99.90
14182;DHT22;7171;50.936;6.764;2023-10-08T08:14:13;18.30;99.90
14182;DHT22;7171;50.936;6.764;2023-10-08T08:16:43;18.30;99.90
14182;DHT22;7171;50.936;6.764;2023-10-08T08:19:14;18.40;99.90
14182;DHT22;7171;50.936;6.764;2023-10-08T08:21:42;18.50;99.90
14182;DHT22;7171;50.936;6.764;2023-10-08T08:24:11;18.30;99.90
14182;DHT22;7171;50.936;6.764;2023-10-08T08:26:38;18.50;99.90
14182;DHT22;7171;50.936;6.764;2023-10-08T08:29:10;19.10;99.90
14182;DHT22;7171;50.936;6.764;2023-10-08T08:31:40;18.60;99.90
14182;DHT22;7171;50.936;6.764;2023-10-08T08:34:11;18.60;99.90
14182;DHT22;7171;50.936;6.764;2023-10-08T08:36:46;18.60;99.90
14182;DHT22;7171;50.936;6.764;2023-10-08T08:39:14;18.70;99.90
14182;DHT22;7171;50.936;6.764;2023-10-08T08:41:58;18.70;99.90
14182;DHT22;7171;50.936;6.764;2023-10-08T08:44:27;18.70;99.90
14182;DHT22;7171;50.936;6.764;2023-10-08T08:46:56;19.40;99.90
14182;DHT22;7171;50.936;6.764;2023-10-08T08:49:25;18.80;99.90
14182;DHT22;7171;50.936;6.764;2023-10-08T08:51:56;18.80;99.90
14182;DHT22;7171;50.936;6.764;2023-10-08T08:54:26;18.80;99.90
14182;DHT22;7171;50.936;6.764;2023-10-08T08:56:56;18.80;99.90
14182;DHT22;7171;50.936;6.764;2023-10-08T08:59:25;18.80;99.90
14182;DHT22;7171;50.936;6.764;2023-10-08T09:01:56;18.70;99.90
14182;DHT22;7171;50.936;6.764;2023-10-08T09:04:28;18.70;99.90
14182;DHT22;7171;50.936;6.764;2023-10-08T09:06:59;18.80;99.90
14182;DHT22;7171;50.936;6.764;2023-10-08T09:09:31;18.80;99.90
14182;DHT22;7171;50.936;6.764;2023-10-08T09:11:58;18.80;99.90
14182;DHT22;7171;50.936;6.764;2023-10-08T09:14:26;18.80;99.90
14182;DHT22;7171;50.936;6.764;2023-10-08T09:16:55;18.80;99.90
14182;DHT22;7171;50.936;6.764;2023-10-08T09:19:24;18.80;99.90
14182;DHT22;7171;50.936;6.764;2023-10-08T09:22:03;18.90;99.90
14182;DHT22;7171;50.936;6.764;2023-10-08T09:24:31;18.90;99.90
14182;DHT22;7171;50.936;6.764;2023-10-08T09:26:59;18.90;99.90
14182;DHT22;7171;50.936;6.764;2023-10-08T09:29:27;18.90;99.90
14182;DHT22;7171;50.936;6.764;2023-10-08T09:31:54;18.90;99.90
14182;DHT22;7171;50.936;6.764;2023-10-08T09:34:23;19.00;99.90
14182;DHT22;7171;50.936;6.764;2023-10-08T09:36:53;19.00;99.90
14182;DHT22;7171;50.936;6.764;2023-10-08T09:39:22;19.10;99.90
14182;DHT22;7171;50.936;6.764;2023-10-08T09:41:50;19.10;99.90
14182;DHT22;7171;50.936;6.764;2023-10-08T09:44:19;19.10;99.90
14182;DHT22;7171;50.936;6.764;2023-10-08T09:47:02;19.20;99.90
14182;DHT22;7171;50.936;6.764;2023-10-08T09:49:31;19.20;99.90
14182;DHT22;7171;50.936;6.764;2023-10-08T09:52:01;19.20;99.90
14182;DHT22;7171;50.936;6.764;2023-10-08T09:54:31;19.20;99.90
14182;DHT22;7171;50.936;6.764;2023-10-08T09:57:05;19.20;99.90
14182;DHT22;7171;50.936;6.764;2023-10-08T09:59:33;19.20;99.90
14182;DHT22;7171;50.936;6.764;2023-10-08T10:02:01;19.20;99.90
14182;DHT22;7171;50.936;6.764;2023-10-08T10:04:30;19.20;99.90
14182;DHT22;7171;50.936;6.764;2023-10-08T10:06:58;19.20;99.90
14182;DHT22;7171;50.936;6.764;2023-10-08T10:09:25;19.30;99.90
14182;DHT22;7171;50.936;6.764;2023-10-08T10:11:55;19.30;99.90
14182;DHT22;7171;50.936;6.764;2023-10-08T10:14:23;19.30;99.90
14182;DHT22;7171;50.936;6.764;2023-10-08T10:17:08;19.30;99.90
14182;DHT22;7171;50.936;6.764;2023-10-08T10:19:36;19.30;99.90
14182;DHT22;7171;50.936;6.764;2023-10-08T10:22:04;19.30;99.90
14182;DHT22;7171;50.936;6.764;2023-10-08T10:24:33;19.30;99.90
14182;DHT22;7171;50.936;6.764;2023-10-08T10:27:14;19.30;99.90
14182;DHT22;7171;50.936;6.764;2023-10-08T10:29:41;19.30;99.90
14182;DHT22;7171;50.936;6.764;2023-10-08T10:32:11;19.30;99.90
14182;DHT22;7171;50.936;6.764;2023-10-08T10:34:41;19.40;99.90
14182;DHT22;7171;50.936;6.764;2023-10-08T10:37:08;19.40;99.90
14182;DHT22;7171;50.936;6.764;2023-10-08T10:39:53;19.40;99.90
14182;DHT22;7171;50.936;6.764;2023-10-08T10:42:23;19.40;99.90
14182;DHT22;7171;50.936;6.764;2023-10-08T10:44:53;19.40;99.90
14182;DHT22;7171;50.936;6.764;2023-10-08T10:47:21;19.50;99.90
14182;DHT22;7171;50.936;6.764;2023-10-08T10:49:54;19.50;99.90
14182;DHT22;7171;50.936;6.764;2023-10-08T10:52:41;19.60;99.90
14182;DHT22;7171;50.936;6.764;2023-10-08T10:55:18;19.60;99.90
14182;DHT22;7171;50.936;6.764;2023-10-08T10:57:49;19.70;99.90
14182;DHT22;7171;50.936;6.764;2023-10-08T11:00:29;19.80;99.90
14182;DHT22;7171;50.936;6.764;2023-10-08T11:03:22;19.80;99.90
14182;DHT22;7171;50.936;6.764;2023-10-08T11:05:52;19.80;99.90
14182;DHT22;7171;50.936;6.764;2023-10-08T11:08:21;19.80;99.90
14182;DHT22;7171;50.936;6.764;2023-10-08T11:10:49;19.80;99.90
14182;DHT22;7171;50.936;6.764;2023-10-08T11:13:19;19.90;99.90
14182;DHT22;7171;50.936;6.764;2023-10-08T11:15:48;19.90;99.90
14182;DHT22;7171;50.936;6.764;2023-10-08T11:18:18;20.00;99.90
14182;DHT22;7171;50.936;6.764;2023-10-08T11:20:47;20.00;99.90
14182;DHT22;7171;50.936;6.764;2023-10-08T11:23:32;20.00;99.90
14182;DHT22;7171;50.936;6.764;2023-10-08T11:26:01;20.10;99.90
14182;DHT22;7171;50.936;6.764;2023-10-08T11:28:31;20.20;99.90
14182;DHT22;7171;50.936;6.764;2023-10-08T11:30:59;20.30;99.90
14182;DHT22;7171;50.936;6.764;2023-10-08T11:33:34;20.30;99.90
14182;DHT22;7171;50.936;6.764;2023-10-08T11:36:02;21.80;99.90
14182;DHT22;7171;50.936;6.764;2023-10-08T11:38:38;20.40;99.90
14182;DHT22;7171;50.936;6.764;2023-10-08T11:41:11;20.50;99.90
14182;DHT22;7171;50.936;6.764;2023-10-08T11:43:48;20.50;99.90
14182;DHT22;7171;50.936;6.764;2023-10-08T11:46:20;20.50;99.90
14182;DHT22;7171;50.936;6.764;2023-10-08T11:48:47;20.60;99.90
14182;DHT22;7171;50.936;6.764;2023-10-08T11:51:13;20.60;99.90
14182;DHT22;7171;50.936;6.764;2023-10-08T11:53:43;20.60;99.90
14182;DHT22;7171;50.936;6.764;2023-10-08T11:56:11;20.70;99.90
14182;DHT22;7171;50.936;6.764;2023-10-08T11:58:39;20.70;99.90
14182;DHT22;7171;50.936;6.764;2023-10-08T12:01:07;20.70;99.90
14182;DHT22;7171;50.936;6.764;2023-10-08T12:03:36;20.70;99.90
14182;DHT22;7171;50.936;6.764;2023-10-08T12:06:04;20.70;99.90
14182;DHT22;7171;50.936;6.764;2023-10-08T12:08:31;20.70;99.90
14182;DHT22;7171;50.936;6.764;2023-10-08T12:11:04;21.60;99.90
14182;DHT22;7171;50.936;6.764;2023-10-08T12:13:37;21.90;99.90
14182;DHT22;7171;50.936;6.764;2023-10-08T12:16:04;20.70;99.90
14182;DHT22;7171;50.936;6.764;2023-10-08T12:18:34;20.80;99.90
14182;DHT22;7171;50.936;6.764;2023-10-08T12:21:05;22.10;99.90
14182;DHT22;7171;50.936;6.764;2023-10-08T12:23:36;20.70;99.90
14182;DHT22;7171;50.936;6.764;2023-10-08T12:26:03;20.70;99.90
14182;DHT22;7171;50.936;6.764;2023-10-08T12:28:33;20.70;99.90
14182;DHT22;7171;50.936;6.764;2023-10-08T12:31:00;20.70;99.90
14182;DHT22;7171;50.936;6.764;2023-10-08T12:33:27;20.70;99.90
14182;DHT22;7171;50.936;6.764;2023-10-08T12:35:56;20.70;99.90
14182;DHT22;7171;50.936;6.764;2023-10-08T12:38:24;20.70;99.90
14182;DHT22;7171;50.936;6.764;2023-10-08T12:40:53;20.70;99.90
14182;DHT22;7171;50.936;6.764;2023-10-08T12:43:21;20.70;99.90
14182;DHT22;7171;50.936;6.764;2023-10-08T12:45:48;20.70;99.90
14182;DHT22;7171;50.936;6.764;2023-10-08T12:48:19;20.60;99.90
14182;DHT22;7171;50.936;6.764;2023-10-08T12:50:46;20.60;99.90
14182;DHT22;7171;50.936;6.764;2023-10-08T12:53:20;20.60;99.90
14182;DHT22;7171;50.936;6.764;2023-10-08T12:55:53;20.60;99.90
14182;DHT22;7171;50.936;6.764;2023-10-08T12:58:21;20.50;99.90
14182;DHT22;7171;50.936;6.764;2023-10-08T13:00:52;20.50;99.90
14182;DHT22;7171;50.936;6.764;2023-10-08T13:03:23;21.60;99.90
14182;DHT22;7171;50.936;6.764;2023-10-08T13:05:50;20.50;99.90
14182;DHT22;7171;50.936;6.764;2023-10-08T13:08:19;20.40;99.90
14182;DHT22;7171;50.936;6.764;2023-10-08T13:10:46;22.00;99.90
14182;DHT22;7171;50.936;6.764;2023-10-08T13:13:13;20.50;99.90
14182;DHT22;7171;50.936;6.764;2023-10-08T13:15:40;20.40;99.90
14182;DHT22;7171;50.936;6.764;2023-10-08T13:18:08;20.50;99.90
14182;DHT22;7171;50.936;6.764;2023-10-08T13:20:35;20.50;99.90
14182;DHT22;7171;50.936;6.764;2023-10-08T13:23:02;20.50;99.90
14182;DHT22;7171;50.936;6.764;2023-10-08T13:25:31;20.50;99.90
14182;DHT22;7171;50.936;6.764;2023-10-08T13:28:01;21.50;99.90
14182;DHT22;7171;50.936;6.764;2023-10-08T13:30:28;20.60;99.90
14182;DHT22;7171;50.936;6.764;2023-10-08T13:32:55;20.60;99.90
14182;DHT22;7171;50.936;6.764;2023-10-08T13:35:22;20.60;99.90
14182;DHT22;7171;50.936;6.764;2023-10-08T13:37:48;20.60;99.90
14182;DHT22;7171;50.936;6.764;2023-10-08T13:40:15;20.60;99.90
14182;DHT22;7171;50.936;6.764;2023-10-08T13:42:43;20.60;99.90
14182;DHT22;7171;50.936;6.764;2023-10-08T13:45:10;20.60;99.90
14182;DHT22;7171;50.936;6.764;2023-10-08T13:47:52;20.60;99.90
14182;DHT22;7171;50.936;6.764;2023-10-08T13:50:18;20.60;99.90
14182;DHT22;7171;50.936;6.764;2023-10-08T13:52:47;20.60;99.90
14182;DHT22;7171;50.936;6.764;2023-10-08T13:55:14;20.60;99.90
14182;DHT22;7171;50.936;6.764;2023-10-08T13:57:45;20.60;99.90
14182;DHT22;7171;50.936;6.764;2023-10-08T14:00:14;20.50;99.90
14182;DHT22;7171;50.936;6.764;2023-10-08T14:02:42;20.60;99.90
14182;DHT22;7171;50.936;6.764;2023-10-08T14:05:10;20.60;99.90
14182;DHT22;7171;50.936;6.764;2023-10-08T14:07:41;20.60;99.90
14182;DHT22;7171;50.936;6.764;2023-10-08T14:10:10;20.60;99.90
14182;DHT22;7171;50.936;6.764;2023-10-08T14:12:45;22.30;99.90
14182;DHT22;7171;50.936;6.764;2023-10-08T14:15:15;20.60;99.90
14182;DHT22;7171;50.936;6.764;2023-10-08T14:17:43;20.60;99.90
14182;DHT22;7171;50.936;6.764;2023-10-08T14:20:13;20.60;99.90
14182;DHT22;7171;50.936;6.764;2023-10-08T14:22:47;20.60;99.90
14182;DHT22;7171;50.936;6.764;2023-10-08T14:25:17;20.60;99.90
14182;DHT22;7171;50.936;6.764;2023-10-08T14:27:51;20.60;99.90
14182;DHT22;7171;50.936;6.764;2023-10-08T14:30:18;20.60;99.90
14182;DHT22;7171;50.936;6.764;2023-10-08T14:32:49;20.60;99.90
14182;DHT22;7171;50.936;6.764;2023-10-08T14:35:16;20.70;99.90
14182;DHT22;7171;50.936;6.764;2023-10-08T14:38:00;20.60;99.90
14182;DHT22;7171;50.936;6.764;2023-10-08T14:40:45;20.60;99.90
14182;DHT22;7171;50.936;6.764;2023-10-08T14:43:31;20.60;99.90
14182;DHT22;7171;50.936;6.764;2023-10-08T14:46:00;20.50;99.90
14182;DHT22;7171;50.936;6.764;2023-10-08T14:48:30;20.70;99.90
14182;DHT22;7171;50.936;6.764;2023-10-08T14:50:56;20.70;99.90
14182;DHT22;7171;50.936;6.764;2023-10-08T14:53:24;20.70;99.90
14182;DHT22;7171;50.936;6.764;2023-10-08T14:55:50;20.70;99.90
14182;DHT22;7171;50.936;6.764;2023-10-08T14:58:17;20.90;99.90
14182;DHT22;7171;50.936;6.764;2023-10-08T15:00:45;20.70;99.90
14182;DHT22;7171;50.936;6.764;2023-10-08T15:03:12;20.70;99.90
14182;DHT22;7171;50.936;6.764;2023-10-08T15:05:39;20.70;99.90
14182;DHT22;7171;50.936;6.764;2023-10-08T15:08:06;20.70;99.90
14182;DHT22;7171;50.936;6.764;2023-10-08T15:10:35;20.70;99.90
14182;DHT22;7171;50.936;6.764;2023-10-08T15:13:02;18.50;99.90
14182;DHT22;7171;50.936;6.764;2023-10-08T15:15:29;20.70;99.90
14182;DHT22;7171;50.936;6.764;2023-10-08T15:18:01;20.70;99.90
14182;DHT22;7171;50.936;6.764;2023-10-08T15:20:28;20.70;99.90
14182;DHT22;7171;50.936;6.764;2023-10-08T15:22:58;20.70;99.90
14182;DHT22;7171;50.936;6.764;2023-10-08T15:25:24;20.70;99.90
14182;DHT22;7171;50.936;6.764;2023-10-08T15:27:51;20.70;99.90
14182;DHT22;7171;50.936;6.764;2023-10-08T15:30:19;20.70;99.90
14182;DHT22;7171;50.936;6.764;2023-10-08T15:32:47;20.80;99.90
14182;DHT22;7171;50.936;6.764;2023-10-08T15:35:17;20.80;99.90
14182;DHT22;7171;50.936;6.764;2023-10-08T15:37:46;20.80;99.90
14182;DHT22;7171;50.936;6.764;2023-10-08T15:40:14;20.80;99.90
14182;DHT22;7171;50.936;6.764;2023-10-08T15:42:47;20.80;99.90
14182;DHT22;7171;50.936;6.764;2023-10-08T15:45:16;21.20;99.90
14182;DHT22;7171;50.936;6.764;2023-10-08T15:47:43;20.80;99.90
14182;DHT22;7171;50.936;6.764;2023-10-08T15:50:10;20.80;99.90
14182;DHT22;7171;50.936;6.764;2023-10-08T15:52:38;20.80;99.90
14182;DHT22;7171;50.936;6.764;2023-10-08T15:55:06;20.80;99.90
14182;DHT22;7171;50.936;6.764;2023-10-08T15:57:33;20.70;99.90
14182;DHT22;7171;50.936;6.764;2023-10-08T16:00:00;20.70;99.90
14182;DHT22;7171;50.936;6.764;2023-10-08T16:02:29;20.70;99.90
14182;DHT22;7171;50.936;6.764;2023-10-08T16:04:56;23.20;99.90
14182;DHT22;7171;50.936;6.764;2023-10-08T16:07:22;20.70;99.90
14182;DHT22;7171;50.936;6.764;2023-10-08T16:09:50;20.70;99.90